San Lorenzo, CA

12:48 PM PDT on July 26, 2016 (GMT -0700)
Hayward Executive | | Change Station

Elev 46 ft 37.66 °N, 122.12 °W | Updated 54 minutes ago

Clear
Clear
79 °F
Feels Like 79 °F
N
7
Wind Variable Wind from WNW

Today
High -- | Low -- °F
--% Chance of Precip.
Yesterday
High -- | Low -- °F
Precip. -- in
Pressure 29.93 in
Visibility 10.0 miles
Clouds Clear
Dew Point 56 °F
Humidity 45%
Rainfall 0.00 in
Snow Depth Not available.
6:07 AM 8:21 PM
Waning Gibbous, 51% visible
METAR KHWD 261854Z 30006KT 10SM CLR 26/13 A2990 RMK AO2 SLP135 T02610133
Pressure 29.93 in
Visibility 10.0 miles
Clouds Clear
Dew Point 56 °F
Humidity 45%
Rainfall 0.00 in
Snow Depth Not available.
6:07 AM 8:21 PM
Waning Gibbous, 51% visible
METAR KHWD 261854Z 30006KT 10SM CLR 26/13 A2990 RMK AO2 SLP135 T02610133

10-Day Weather Forecast

Almanac

Astronomy

Jul. 26, 2016 Rise Set
Actual Time
Civil Twilight
Nautical Twilight
Astronomical Twilight
Moon
Length of Visible Light
Length of Day
Tomorrow will be .
, % of the Moon is Illuminated

Today's Extremes

State Highs State Lows

Community

WunderPhotos

Upload Photos

1,927,667 photos uploaded!

WunderBlog® & News

Nearby

Air Quality

  Air Quality AQ Index Pollutant
Not available.

Snow Depth

Station Depth Elevation

Earthquake Activity

City Distance Mag. Time & Date
Minimum magnitude displayed is 2.5.

Coastal Water Temperatures

Place Temperature

Stations

Nearby Weather Stations

Station Location Temp. Windchill Dew Point Humidity Wind Precip. Elev Updated Type
                   

Watches & Warnings

There are currently no watches in effect.